Time;durP1;ratioP1;P1;durP2;ratioP2;P2;SDS_P1;SDS_P2;PMS_P1;PMS_P2;Temp;Humidity;BMP_temperature;BMP_pressure;BME280_temperature;BME280_humidity;BME280_pressure;Samples;Min_cycle;Max_cycle;Signal;HPM_P1;HPM_P2
2022/12/07 00:02:04;;;;;;;9.63;6.95;;;5.20;86.00;;;;;;5005205;28;20129;-60
2022/12/07 00:04:30;;;;;;;10.40;7.78;;;5.20;86.00;;;;;;5015073;28;20025;-61
2022/12/07 00:06:55;;;;;;;10.05;7.60;;;5.20;86.00;;;;;;5014105;28;20034;-61
2022/12/07 00:09:21;;;;;;;11.18;7.75;;;5.10;86.00;;;;;;5015532;28;20030;-60
2022/12/07 00:11:51;;;;;;;10.98;7.45;;;5.20;86.00;;;;;;5012920;28;20049;-61
2022/12/07 00:14:17;;;;;;;9.15;7.35;;;5.10;86.00;;;;;;5013761;28;20092;-61
2022/12/07 00:16:44;;;;;;;10.23;7.20;;;5.20;86.10;;;;;;5012954;28;20120;-62
2022/12/07 00:19:11;;;;;;;11.48;7.72;;;5.20;86.10;;;;;;5012386;28;20073;-62
2022/12/07 00:21:37;;;;;;;10.63;7.25;;;5.20;86.10;;;;;;5010955;28;20048;-62
2022/12/07 00:24:04;;;;;;;10.52;7.65;;;5.20;86.10;;;;;;5008017;28;20030;-60
2022/12/07 00:26:36;;;;;;;10.90;7.03;;;5.20;86.10;;;;;;5007049;28;20156;-60
2022/12/07 00:29:12;;;;;;;10.88;7.22;;;5.30;86.10;;;;;;5012950;28;20030;-60
2022/12/07 00:31:38;;;;;;;9.95;6.72;;;5.30;86.10;;;;;;5005370;28;20034;-61
2022/12/07 00:34:05;;;;;;;9.77;7.25;;;5.30;86.00;;;;;;5008480;28;20079;-60
2022/12/07 00:36:31;;;;;;;10.55;7.07;;;5.30;86.00;;;;;;5011095;28;20060;-61
2022/12/07 00:38:58;;;;;;;12.05;7.15;;;5.30;86.00;;;;;;5008425;28;20485;-61
2022/12/07 00:41:25;;;;;;;9.73;7.20;;;5.30;85.90;;;;;;5009851;28;20041;-62
2022/12/07 00:43:52;;;;;;;11.02;7.25;;;5.30;85.80;;;;;;5011449;28;20034;-61
2022/12/07 00:46:19;;;;;;;10.38;7.55;;;5.40;85.90;;;;;;5006566;28;20069;-61
2022/12/07 00:48:45;;;;;;;10.75;7.57;;;5.40;85.80;;;;;;5013589;28;20046;-61
2022/12/07 00:51:12;;;;;;;12.23;7.90;;;5.40;85.70;;;;;;5010364;28;20119;-61
2022/12/07 00:53:39;;;;;;;11.18;7.40;;;5.40;85.70;;;;;;5010553;28;20531;-60
2022/12/07 00:56:11;;;;;;;10.88;7.45;;;5.40;85.60;;;;;;5010948;28;20563;-59
2022/12/07 00:58:36;;;;;;;11.18;7.22;;;5.40;85.60;;;;;;5012676;28;20049;-60
2022/12/07 01:01:04;;;;;;;11.38;7.50;;;5.40;85.70;;;;;;5011774;28;20042;-59
2022/12/07 01:03:29;;;;;;;13.57;8.18;;;5.40;85.70;;;;;;5006868;28;20033;-60
2022/12/07 01:05:56;;;;;;;11.73;7.25;;;5.40;85.60;;;;;;5012900;28;20413;-60
2022/12/07 01:08:23;;;;;;;9.60;7.35;;;5.50;85.60;;;;;;5010473;28;20057;-61
2022/12/07 01:10:49;;;;;;;11.40;7.93;;;5.50;85.60;;;;;;5015782;28;20064;-62
2022/12/07 01:13:15;;;;;;;10.35;7.40;;;5.50;85.60;;;;;;5015741;28;20068;-62
2022/12/07 01:15:42;;;;;;;10.23;7.57;;;5.50;85.60;;;;;;5016429;28;20045;-62
2022/12/07 01:18:08;;;;;;;12.02;7.80;;;5.60;85.50;;;;;;5010009;28;20038;-61
2022/12/07 01:20:33;;;;;;;10.93;7.60;;;5.60;85.50;;;;;;5006517;28;20353;-60
2022/12/07 01:22:59;;;;;;;10.30;7.18;;;5.60;85.40;;;;;;5006016;28;20120;-60
2022/12/07 01:25:25;;;;;;;12.15;7.45;;;5.60;85.30;;;;;;5008665;28;20520;-62
2022/12/07 01:27:50;;;;;;;10.45;7.80;;;5.60;85.10;;;;;;5010871;28;20045;-61
2022/12/07 01:30:16;;;;;;;11.32;7.47;;;5.60;84.90;;;;;;5006547;28;20081;-61
2022/12/07 01:32:42;;;;;;;10.73;7.47;;;5.60;84.90;;;;;;5007652;28;20481;-59
2022/12/07 01:35:07;;;;;;;10.18;7.22;;;5.60;84.80;;;;;;5006696;28;20057;-61
2022/12/07 01:37:37;;;;;;;10.27;7.53;;;5.60;84.90;;;;;;5009621;28;20133;-62
2022/12/07 01:40:05;;;;;;;10.02;7.28;;;5.60;85.00;;;;;;5009812;28;20038;-60
2022/12/07 01:42:31;;;;;;;14.02;7.60;;;5.60;85.00;;;;;;5009040;28;20491;-61
2022/12/07 01:45:18;;;;;;;12.45;7.43;;;5.70;85.10;;;;;;5010578;28;20034;-60
2022/12/07 01:47:48;;;;;;;9.80;6.90;;;5.70;85.00;;;;;;5014963;28;20037;-61
2022/12/07 01:50:14;;;;;;;10.55;7.10;;;5.70;85.00;;;;;;5010802;28;20053;-61
2022/12/07 01:52:41;;;;;;;10.38;7.15;;;5.70;84.90;;;;;;5011781;28;20126;-62
2022/12/07 01:55:10;;;;;;;11.27;7.38;;;5.70;84.80;;;;;;5010476;28;20037;-61
2022/12/07 01:57:41;;;;;;;10.00;7.25;;;5.70;84.70;;;;;;5015842;28;20037;-61
2022/12/07 02:00:08;;;;;;;10.98;7.45;;;5.70;84.70;;;;;;5012858;28;20062;-61
2022/12/07 02:02:37;;;;;;;10.25;7.45;;;5.70;85.80;;;;;;5011503;28;20084;-60
2022/12/07 02:05:05;;;;;;;13.18;7.88;;;5.70;84.80;;;;;;5010949;28;20037;-62
2022/12/07 02:07:33;;;;;;;11.10;7.18;;;5.70;84.70;;;;;;5013353;28;20057;-60
2022/12/07 02:10:13;;;;;;;9.73;7.20;;;5.70;84.70;;;;;;5013567;28;20065;-61
2022/12/07 02:12:39;;;;;;;11.25;7.57;;;5.70;84.60;;;;;;5009216;28;20038;-61
2022/12/07 02:15:05;;;;;;;9.75;7.55;;;5.70;84.70;;;;;;5000348;28;20034;-58
2022/12/07 02:18:09;;;;;;;12.25;7.93;;;5.70;84.50;;;;;;5010748;28;20034;-60
2022/12/07 02:21:00;;;;;;;12.32;8.00;;;5.70;84.30;;;;;;4972949;28;20033;-61
2022/12/07 02:23:47;;;;;;;11.05;8.00;;;5.70;84.40;;;;;;5010298;28;20753;-60
2022/12/07 02:26:28;;;;;;;10.65;7.80;;;5.70;84.40;;;;;;5010107;28;20129;-61
2022/12/07 02:29:11;;;;;;;9.77;7.40;;;5.70;84.50;;;;;;5012212;28;20042;-60
2022/12/07 02:31:43;;;;;;;10.23;7.75;;;5.70;84.40;;;;;;5009668;28;20038;-62
2022/12/07 02:34:17;;;;;;;12.30;8.35;;;5.70;84.50;;;;;;5008867;28;20030;-62
2022/12/07 02:36:45;;;;;;;;;;;5.70;84.60;;;;;;5009575;28;20458;-61
2022/12/07 02:39:40;;;;;;;11.10;7.70;;;5.70;84.50;;;;;;5011262;28;19924;-60
2022/12/07 02:42:13;;;;;;;9.77;7.30;;;5.70;84.50;;;;;;5010040;28;20033;-61
2022/12/07 02:44:40;;;;;;;9.55;7.25;;;5.70;84.60;;;;;;5013761;28;20616;-59
2022/12/07 02:47:10;;;;;;;12.43;8.43;;;5.70;84.60;;;;;;5013245;28;20056;-61
2022/12/07 02:49:38;;;;;;;11.63;8.57;;;5.70;84.50;;;;;;5013010;28;20054;-60
2022/12/07 02:52:04;;;;;;;12.13;8.57;;;5.70;84.40;;;;;;5013926;28;20037;-60
2022/12/07 02:54:29;;;;;;;12.55;8.48;;;5.70;84.50;;;;;;5009523;28;20113;-60
2022/12/07 02:57:07;;;;;;;13.52;8.60;;;5.60;84.60;;;;;;5010631;28;20555;-60
2022/12/07 02:59:56;;;;;;;13.20;9.07;;;5.60;84.40;;;;;;5011596;28;20061;-61
2022/12/07 03:02:35;;;;;;;12.65;9.05;;;5.60;84.20;;;;;;5009307;28;20030;-62
2022/12/07 03:05:38;;;;;;;13.40;9.10;;;5.60;84.40;;;;;;5011765;28;20030;-61
2022/12/07 03:08:35;;;;;;;13.35;9.45;;;5.60;84.40;;;;;;5014557;28;20038;-61
2022/12/07 03:11:06;;;;;;;14.10;9.63;;;5.50;84.40;;;;;;5016183;28;20034;-61
2022/12/07 03:13:34;;;;;;;12.32;9.07;;;5.50;84.60;;;;;;5014622;28;20099;-61
2022/12/07 03:16:15;;;;;;;12.57;8.85;;;5.40;84.60;;;;;;5015502;28;20040;-57
2022/12/07 03:18:58;;;;;;;11.63;8.48;;;5.40;84.60;;;;;;5017141;28;20114;-60
2022/12/07 03:21:33;;;;;;;13.18;8.93;;;5.40;84.70;;;;;;5017638;28;20172;-61
2022/12/07 03:24:03;;;;;;;12.88;8.65;;;5.40;84.90;;;;;;5017147;28;20084;-62
2022/12/07 03:26:34;;;;;;;13.65;8.82;;;5.30;85.00;;;;;;5018152;28;20038;-61
2022/12/07 03:29:05;;;;;;;12.85;8.77;;;5.30;85.20;;;;;;5018260;28;20045;-62
2022/12/07 03:31:39;;;;;;;12.90;9.18;;;5.30;85.30;;;;;;5018066;28;20037;-60
2022/12/07 03:34:13;;;;;;;12.50;9.03;;;5.30;85.40;;;;;;5017137;28;20035;-60
2022/12/07 03:36:55;;;;;;;13.02;8.95;;;5.30;85.40;;;;;;5017384;28;20322;-61
2022/12/07 03:39:33;;;;;;;13.10;8.60;;;5.30;85.60;;;;;;5014790;28;20168;-61
2022/12/07 03:42:00;;;;;;;13.13;8.85;;;5.30;86.50;;;;;;5014246;28;20405;-59
2022/12/07 03:44:26;;;;;;;12.95;9.02;;;5.20;85.80;;;;;;5011126;28;20033;-62
2022/12/07 03:47:17;;;;;;;13.15;8.98;;;5.20;85.80;;;;;;5012801;28;20037;-60
2022/12/07 03:49:50;;;;;;;15.18;9.20;;;5.30;86.10;;;;;;5013952;28;20037;-61
2022/12/07 03:52:24;;;;;;;12.70;8.63;;;5.30;86.00;;;;;;5009224;28;20529;-60
2022/12/07 03:55:01;;;;;;;17.33;8.63;;;5.30;85.90;;;;;;5006983;28;20032;-59
2022/12/07 03:57:29;;;;;;;46.55;22.75;;;5.30;85.80;;;;;;5009008;28;20025;-60
2022/12/07 03:59:56;;;;;;;17.23;11.15;;;5.30;85.80;;;;;;5009635;28;20052;-61
2022/12/07 04:02:24;;;;;;;18.55;11.48;;;5.40;86.00;;;;;;5010644;28;20040;-61
2022/12/07 04:04:50;;;;;;;16.08;9.65;;;5.40;86.00;;;;;;5011469;28;20029;-61
2022/12/07 04:07:16;;;;;;;21.20;14.93;;;5.40;86.00;;;;;;5007772;28;20125;-60
2022/12/07 04:09:41;;;;;;;19.60;13.05;;;5.40;85.90;;;;;;5008215;28;20468;-61
2022/12/07 04:12:07;;;;;;;16.25;10.95;;;5.40;85.90;;;;;;5006273;28;20057;-62
2022/12/07 04:14:33;;;;;;;12.95;9.23;;;5.40;85.80;;;;;;5010450;28;20037;-60
2022/12/07 04:16:59;;;;;;;14.82;9.27;;;5.50;85.90;;;;;;5012000;28;20052;-60
2022/12/07 04:19:29;;;;;;;12.75;9.07;;;5.50;85.80;;;;;;5010925;28;20113;-60
2022/12/07 04:21:56;;;;;;;12.45;8.63;;;5.50;85.60;;;;;;5008865;28;20666;-59
2022/12/07 04:24:24;;;;;;;13.10;8.43;;;5.50;85.50;;;;;;5012492;28;20038;-61
2022/12/07 04:26:50;;;;;;;12.95;8.43;;;5.50;85.40;;;;;;5008732;28;20120;-60
2022/12/07 04:29:17;;;;;;;15.30;8.82;;;5.50;85.40;;;;;;5012500;28;20045;-60
2022/12/07 04:31:43;;;;;;;13.82;9.07;;;5.50;85.90;;;;;;5009266;28;20033;-61
2022/12/07 04:34:09;;;;;;;13.35;8.45;;;5.50;85.50;;;;;;5008881;28;20037;-61
2022/12/07 04:36:35;;;;;;;13.57;8.82;;;5.60;85.50;;;;;;5007971;28;20168;-62
2022/12/07 04:39:04;;;;;;;12.07;8.27;;;5.60;85.40;;;;;;5009427;28;20030;-61
2022/12/07 04:41:30;;;;;;;12.60;8.85;;;5.60;85.30;;;;;;5006812;28;20026;-61
2022/12/07 04:43:57;;;;;;;13.15;8.63;;;5.60;85.30;;;;;;5010887;28;20041;-60
2022/12/07 04:46:24;;;;;;;12.05;8.40;;;5.60;85.20;;;;;;5009212;28;20052;-60
2022/12/07 04:48:51;;;;;;;13.45;8.88;;;5.60;85.10;;;;;;5009477;28;20238;-61
2022/12/07 04:51:21;;;;;;;13.00;8.60;;;5.60;85.10;;;;;;5009979;28;20034;-62
2022/12/07 04:53:47;;;;;;;12.35;8.48;;;5.60;85.00;;;;;;5009028;28;20041;-61
2022/12/07 04:56:14;;;;;;;13.27;8.85;;;5.60;85.00;;;;;;5005850;28;20049;-61
2022/12/07 04:58:39;;;;;;;12.73;8.63;;;5.60;84.90;;;;;;5010955;28;20029;-62
2022/12/07 05:01:05;;;;;;;14.40;9.07;;;5.60;84.90;;;;;;5007040;28;20061;-61
2022/12/07 05:03:30;;;;;;;12.63;8.48;;;5.60;84.90;;;;;;5009634;28;20037;-61
2022/12/07 05:05:56;;;;;;;14.00;8.73;;;5.60;84.90;;;;;;5005586;28;20081;-61
2022/12/07 05:08:21;;;;;;;13.80;8.88;;;5.60;84.90;;;;;;5010881;28;20041;-61
2022/12/07 05:10:48;;;;;;;15.30;8.75;;;5.60;84.90;;;;;;5011947;28;20029;-61
2022/12/07 05:13:14;;;;;;;12.77;8.50;;;5.60;84.70;;;;;;5014133;28;20037;-57
2022/12/07 05:15:40;;;;;;;15.27;9.05;;;5.60;84.70;;;;;;5012715;28;20045;-59
2022/12/07 05:18:06;;;;;;;13.30;8.98;;;5.60;84.70;;;;;;5008337;28;20045;-61
2022/12/07 05:20:31;;;;;;;17.52;12.45;;;5.60;84.70;;;;;;5011311;28;21836;-61
2022/12/07 05:22:58;;;;;;;15.30;9.48;;;5.60;84.90;;;;;;5007740;28;20038;-61
2022/12/07 05:25:24;;;;;;;15.38;10.73;;;5.60;84.80;;;;;;5014581;28;20096;-60
2022/12/07 05:27:49;;;;;;;14.98;10.02;;;5.60;84.90;;;;;;5017392;28;20037;-59
2022/12/07 05:30:15;;;;;;;15.68;11.38;;;5.60;84.90;;;;;;5018304;28;20041;-60
2022/12/07 05:32:41;;;;;;;15.77;11.13;;;5.60;84.90;;;;;;5017321;28;20034;-58
2022/12/07 05:35:07;;;;;;;13.57;9.35;;;5.60;84.90;;;;;;5018234;28;20038;-59
2022/12/07 05:37:32;;;;;;;15.50;11.43;;;5.60;84.80;;;;;;5018894;28;20057;-60
2022/12/07 05:39:58;;;;;;;14.80;10.73;;;5.50;84.80;;;;;;5017154;28;20061;-60
2022/12/07 05:42:24;;;;;;;18.73;10.45;;;5.60;84.90;;;;;;5017842;28;20046;-61
2022/12/07 05:44:50;;;;;;;16.25;10.32;;;5.60;84.90;;;;;;5016519;28;20033;-61
2022/12/07 05:47:15;;;;;;;13.52;9.75;;;5.50;84.80;;;;;;5016090;28;20044;-59
2022/12/07 05:49:41;;;;;;;16.00;10.38;;;5.50;84.80;;;;;;5017572;28;20041;-60
2022/12/07 05:52:07;;;;;;;14.90;9.48;;;5.50;84.90;;;;;;5018098;28;20116;-60
2022/12/07 05:54:33;;;;;;;13.10;9.13;;;5.50;84.90;;;;;;5015983;28;20030;-61
2022/12/07 05:56:59;;;;;;;14.52;9.07;;;5.50;84.80;;;;;;5018601;28;20037;-58
2022/12/07 05:59:24;;;;;;;12.88;9.02;;;5.50;84.70;;;;;;5017401;28;20535;-60
2022/12/07 06:02:08;;;;;;;12.75;8.75;;;5.50;84.70;;;;;;5017429;28;20049;-59
2022/12/07 06:04:36;;;;;;;16.05;8.68;;;5.50;84.70;;;;;;5016235;28;20061;-60
2022/12/07 06:07:03;;;;;;;12.07;8.50;;;5.50;84.80;;;;;;5017333;28;20450;-61
2022/12/07 06:09:29;;;;;;;13.45;8.38;;;5.50;84.80;;;;;;5000944;28;20061;-62
2022/12/07 06:14:40;;;;;;;13.75;8.75;;;5.50;85.00;;;;;;5016489;28;20045;-59
2022/12/07 06:17:07;;;;;;;13.35;9.00;;;5.50;85.00;;;;;;5016314;28;20037;-60
2022/12/07 06:19:32;;;;;;;15.38;9.25;;;5.50;84.90;;;;;;5016716;28;20103;-61
2022/12/07 06:21:58;;;;;;;13.65;9.05;;;5.50;84.90;;;;;;5017487;28;20409;-61
2022/12/07 06:24:24;;;;;;;15.35;9.35;;;5.50;84.70;;;;;;5016088;28;20111;-59
2022/12/07 06:26:50;;;;;;;12.82;8.43;;;5.50;84.70;;;;;;5016359;28;20560;-59
2022/12/07 06:29:17;;;;;;;15.18;8.50;;;5.40;84.60;;;;;;5017542;28;20048;-60
2022/12/07 06:31:43;;;;;;;14.43;8.23;;;5.40;84.40;;;;;;5016882;28;20056;-60
2022/12/07 06:34:12;;;;;;;13.38;7.75;;;5.40;84.40;;;;;;5014549;28;20033;-60
2022/12/07 06:36:38;;;;;;;9.75;7.32;;;5.30;84.40;;;;;;5017578;28;20041;-59
2022/12/07 06:39:05;;;;;;;11.32;7.47;;;5.30;84.60;;;;;;5016878;28;20026;-61
2022/12/07 06:41:31;;;;;;;13.00;7.95;;;5.30;84.60;;;;;;5016853;28;20058;-61
2022/12/07 06:43:56;;;;;;;12.13;8.07;;;5.20;84.60;;;;;;5013063;28;20091;-61
2022/12/07 06:46:23;;;;;;;12.02;8.25;;;5.20;84.70;;;;;;5015999;28;20049;-60
2022/12/07 06:48:49;;;;;;;14.30;8.65;;;5.20;84.80;;;;;;5015598;28;20037;-59
2022/12/07 06:51:15;;;;;;;11.75;8.40;;;5.20;84.80;;;;;;5016798;28;20497;-60
2022/12/07 06:53:40;;;;;;;17.13;8.95;;;5.20;84.80;;;;;;5016245;28;20119;-60
2022/12/07 06:56:06;;;;;;;12.80;8.52;;;5.20;84.90;;;;;;5016275;28;20517;-62
2022/12/07 06:58:32;;;;;;;12.82;8.20;;;5.10;84.90;;;;;;5014910;28;20429;-60
2022/12/07 07:00:57;;;;;;;12.63;8.15;;;5.10;85.00;;;;;;5016676;28;20030;-60
2022/12/07 07:03:23;;;;;;;13.52;8.20;;;5.10;84.90;;;;;;5015187;28;20045;-60
2022/12/07 07:05:49;;;;;;;10.90;7.70;;;5.10;84.90;;;;;;5016641;28;20030;-61
2022/12/07 07:08:14;;;;;;;13.60;8.25;;;5.00;85.00;;;;;;5017420;28;20084;-59
2022/12/07 07:10:41;;;;;;;12.30;8.05;;;5.00;85.10;;;;;;5018957;28;20044;-61
2022/12/07 07:13:07;;;;;;;14.70;8.45;;;5.00;85.10;;;;;;5017202;28;20034;-60
2022/12/07 07:15:33;;;;;;;12.82;8.05;;;5.10;85.10;;;;;;5018172;28;20037;-61
2022/12/07 07:17:59;;;;;;;14.43;8.73;;;5.10;85.10;;;;;;5017665;28;20117;-60
2022/12/07 07:20:25;;;;;;;18.20;8.68;;;5.00;85.10;;;;;;5015714;28;20026;-61
2022/12/07 07:22:54;;;;;;;11.45;8.30;;;5.00;85.10;;;;;;5015472;28;20029;-61
2022/12/07 07:25:20;;;;;;;15.00;8.82;;;5.00;84.90;;;;;;5015164;28;20034;-60
2022/12/07 07:27:45;;;;;;;16.15;8.70;;;5.00;84.90;;;;;;5015387;28;20512;-61
2022/12/07 07:30:11;;;;;;;17.38;9.27;;;5.00;84.90;;;;;;5016011;28;20114;-59
2022/12/07 07:32:37;;;;;;;12.15;8.18;;;5.00;84.90;;;;;;5015893;28;20038;-61
2022/12/07 07:35:03;;;;;;;13.55;8.35;;;4.90;84.90;;;;;;5013682;28;20111;-62
2022/12/07 07:37:28;;;;;;;14.73;8.85;;;4.90;85.00;;;;;;5014289;28;20033;-60
2022/12/07 07:39:54;;;;;;;14.07;8.38;;;4.90;85.10;;;;;;5014333;28;20304;-61
2022/12/07 07:42:20;;;;;;;12.23;8.65;;;4.90;85.10;;;;;;5015418;28;20401;-59
2022/12/07 07:44:45;;;;;;;16.35;8.93;;;4.90;85.10;;;;;;5014532;28;20064;-60
2022/12/07 07:47:11;;;;;;;18.60;9.20;;;4.90;85.10;;;;;;5014257;28;20041;-61
2022/12/07 07:49:36;;;;;;;13.43;8.93;;;4.90;85.10;;;;;;5015189;28;20052;-60
2022/12/07 07:52:02;;;;;;;13.60;8.85;;;4.90;85.10;;;;;;5014645;28;20030;-61
2022/12/07 07:54:28;;;;;;;15.75;8.82;;;4.90;85.10;;;;;;5012748;28;20057;-60
2022/12/07 07:56:54;;;;;;;14.13;9.05;;;4.90;85.20;;;;;;5015747;28;20045;-61
2022/12/07 07:59:19;;;;;;;13.38;9.10;;;4.90;85.30;;;;;;5013954;28;20045;-60
2022/12/07 08:01:45;;;;;;;14.02;9.20;;;4.90;85.30;;;;;;5016105;28;20496;-61
2022/12/07 08:04:10;;;;;;;14.52;9.20;;;4.90;85.30;;;;;;5014173;28;20429;-61
2022/12/07 08:06:36;;;;;;;12.98;8.70;;;4.90;85.30;;;;;;5014026;28;20549;-59
2022/12/07 08:09:02;;;;;;;10.98;7.95;;;4.90;85.30;;;;;;5015827;28;20523;-61
2022/12/07 08:11:28;;;;;;;10.38;7.75;;;4.90;85.10;;;;;;5011722;28;20026;-60
2022/12/07 08:13:54;;;;;;;13.32;8.40;;;5.00;85.10;;;;;;5014041;28;20033;-59
2022/12/07 08:16:19;;;;;;;11.98;8.60;;;5.00;85.10;;;;;;5014428;28;20044;-61
2022/12/07 08:18:45;;;;;;;12.77;7.88;;;5.00;85.00;;;;;;5012526;28;20065;-61
2022/12/07 08:21:13;;;;;;;12.68;8.90;;;4.90;84.90;;;;;;5015688;28;20468;-60
2022/12/07 08:23:39;;;;;;;12.45;8.52;;;4.90;84.90;;;;;;5013954;28;20117;-60
2022/12/07 08:26:07;;;;;;;13.82;9.00;;;5.00;85.00;;;;;;5014491;28;20068;-62
2022/12/07 08:28:33;;;;;;;12.10;8.60;;;4.90;84.90;;;;;;5014758;28;20448;-59
2022/12/07 08:31:01;;;;;;;15.55;8.93;;;5.00;85.10;;;;;;5014392;28;20034;-59
2022/12/07 08:33:27;;;;;;;13.10;8.73;;;5.00;85.10;;;;;;5015761;28;20041;-59
2022/12/07 08:35:52;;;;;;;14.45;8.80;;;5.00;85.20;;;;;;5012978;28;20068;-61
2022/12/07 08:38:18;;;;;;;11.57;8.68;;;5.00;85.10;;;;;;5014738;28;20604;-61
2022/12/07 08:40:44;;;;;;;12.30;8.40;;;5.10;85.10;;;;;;5014892;28;20125;-61
2022/12/07 08:43:09;;;;;;;14.65;8.85;;;5.00;85.00;;;;;;5014688;28;20128;-61
2022/12/07 08:45:35;;;;;;;13.77;8.73;;;5.10;85.00;;;;;;5015178;28;20464;-60
2022/12/07 08:48:12;;;;;;;13.98;8.27;;;5.10;84.90;;;;;;5013026;28;20034;-61
2022/12/07 08:50:38;;;;;;;12.80;7.80;;;5.10;84.90;;;;;;5011215;28;20317;-61
2022/12/07 08:53:05;;;;;;;12.98;8.23;;;5.10;84.90;;;;;;5014535;28;20113;-61
2022/12/07 08:55:33;;;;;;;11.38;8.18;;;5.10;84.80;;;;;;5014395;28;20498;-61
2022/12/07 08:57:59;;;;;;;11.38;7.95;;;5.10;84.80;;;;;;5015360;28;21000;-61
2022/12/07 09:00:26;;;;;;;10.90;8.00;;;5.10;84.70;;;;;;5014422;28;20424;-58
2022/12/07 09:02:53;;;;;;;12.00;8.27;;;5.20;84.80;;;;;;5009500;28;20046;-61
2022/12/07 09:05:18;;;;;;;12.52;7.80;;;5.10;84.70;;;;;;5013777;28;20678;-59
2022/12/07 09:07:49;;;;;;;10.63;8.02;;;5.10;84.70;;;;;;5014300;28;20042;-59
2022/12/07 09:10:15;;;;;;;11.73;7.55;;;5.20;84.90;;;;;;5016616;28;20037;-61
2022/12/07 09:12:40;;;;;;;13.77;8.38;;;5.20;84.80;;;;;;5014969;28;20042;-62
2022/12/07 09:15:07;;;;;;;12.48;7.93;;;5.20;84.60;;;;;;5016555;28;20519;-61
2022/12/07 09:17:34;;;;;;;11.80;8.05;;;5.10;84.40;;;;;;5016797;28;20088;-60
2022/12/07 09:20:00;;;;;;;18.08;8.88;;;5.10;84.60;;;;;;5015379;28;20531;-60
2022/12/07 09:22:30;;;;;;;11.85;8.35;;;5.10;84.80;;;;;;5014784;28;20045;-60
2022/12/07 09:24:58;;;;;;;13.98;8.18;;;5.10;84.90;;;;;;5014328;28;20034;-61
2022/12/07 09:27:24;;;;;;;12.18;8.15;;;5.10;84.90;;;;;;5013532;28;20041;-61
2022/12/07 09:29:50;;;;;;;11.68;7.88;;;5.10;85.00;;;;;;5014907;28;20509;-59
2022/12/07 09:32:16;;;;;;;11.75;7.78;;;5.10;85.10;;;;;;5014083;28;20096;-60
2022/12/07 09:34:41;;;;;;;10.63;7.38;;;5.10;85.20;;;;;;5012670;28;20042;-61
2022/12/07 09:37:07;;;;;;;10.57;7.50;;;5.20;85.30;;;;;;5013821;28;20045;-60
2022/12/07 09:39:33;;;;;;;10.55;7.82;;;5.20;85.00;;;;;;5015070;28;20041;-61
2022/12/07 09:42:03;;;;;;;10.20;7.13;;;5.30;84.90;;;;;;5013591;28;20733;-60
2022/12/07 09:44:29;;;;;;;12.45;7.65;;;5.30;84.60;;;;;;5013805;28;20038;-60
2022/12/07 09:46:56;;;;;;;11.00;7.40;;;5.40;84.50;;;;;;5014680;28;20038;-61
2022/12/07 09:49:25;;;;;;;10.68;6.80;;;5.40;84.30;;;;;;5015441;28;20045;-60
2022/12/07 09:52:26;;;;;;;9.82;7.13;;;5.40;84.20;;;;;;5012810;28;20045;-60
2022/12/07 09:54:52;;;;;;;7.53;5.90;;;5.40;83.20;;;;;;5014467;28;20045;-60
2022/12/07 09:57:25;;;;;;;7.78;5.57;;;5.50;83.70;;;;;;5013759;28;20034;-62
2022/12/07 09:59:51;;;;;;;10.25;6.68;;;5.60;83.30;;;;;;5014412;28;20037;-62
2022/12/07 10:02:36;;;;;;;8.98;5.85;;;5.60;83.30;;;;;;5013885;28;20049;-59
2022/12/07 10:05:05;;;;;;;9.75;5.78;;;5.60;82.10;;;;;;5014289;28;20036;-61
2022/12/07 10:07:31;;;;;;;11.82;6.55;;;5.70;82.50;;;;;;5017440;28;20022;-61
2022/12/07 10:09:56;;;;;;;7.88;5.63;;;5.70;82.30;;;;;;5019048;28;20546;-62
2022/12/07 10:12:22;;;;;;;9.13;5.75;;;5.70;81.60;;;;;;5014364;28;20040;-62
2022/12/07 10:14:58;;;;;;;6.10;4.57;;;5.80;82.00;;;;;;5017465;28;20485;-61
2022/12/07 10:17:51;;;;;;;5.47;4.28;;;5.80;81.00;;;;;;5017234;28;20037;-62
2022/12/07 10:20:27;;;;;;;5.63;3.67;;;5.90;80.30;;;;;;4998837;28;20069;-61
2022/12/07 10:22:56;;;;;;;3.95;3.47;;;5.90;79.60;;;;;;5017141;28;20080;-61
2022/12/07 10:25:26;;;;;;;7.60;3.88;;;6.00;79.70;;;;;;5016661;28;20041;-60
2022/12/07 10:28:33;;;;;;;6.70;4.57;;;6.00;79.60;;;;;;5017994;28;20038;-59
2022/12/07 10:31:14;;;;;;;4.60;3.88;;;6.10;77.90;;;;;;4979375;28;20038;-62
2022/12/07 10:33:58;;;;;;;4.95;4.28;;;6.20;78.30;;;;;;5017574;28;20049;-61
2022/12/07 10:36:32;;;;;;;7.38;4.95;;;6.20;77.50;;;;;;5017545;28;20079;-60
2022/12/07 10:39:03;;;;;;;6.82;4.13;;;6.20;76.80;;;;;;5017474;28;20032;-62
2022/12/07 10:41:29;;;;;;;5.70;3.92;;;6.30;76.20;;;;;;5017354;28;20517;-61
2022/12/07 10:43:56;;;;;;;5.68;3.85;;;6.20;76.10;;;;;;5017471;28;20030;-60
2022/12/07 10:46:41;;;;;;;4.57;3.95;;;6.20;76.90;;;;;;5017619;28;20579;-60
2022/12/07 10:49:36;;;;;;;;;;;6.30;76.70;;;;;;5016376;28;20041;-62
2022/12/07 10:52:43;;;;;;;4.55;3.90;;;6.30;76.30;;;;;;4963785;28;19962;-60
2022/12/07 10:55:41;;;;;;;5.85;4.45;;;6.40;76.40;;;;;;5016114;28;20121;-59
2022/12/07 10:58:19;;;;;;;5.18;4.30;;;6.40;76.00;;;;;;5015935;28;20038;-62
2022/12/07 11:00:54;;;;;;;4.80;4.00;;;6.50;74.60;;;;;;5016760;28;20030;-61
2022/12/07 11:03:28;;;;;;;5.15;4.10;;;6.50;75.50;;;;;;5016958;28;20042;-61
2022/12/07 11:05:59;;;;;;;5.30;4.05;;;6.50;75.90;;;;;;5016068;28;20054;-61
2022/12/07 11:08:46;;;;;;;4.65;3.80;;;6.50;76.40;;;;;;5017121;28;20033;-60
2022/12/07 11:11:34;;;;;;;4.82;4.22;;;6.60;75.90;;;;;;5017293;28;20042;-61
2022/12/07 11:14:21;;;;;;;5.95;4.82;;;6.60;74.60;;;;;;5018673;28;20042;-60
2022/12/07 11:17:06;;;;;;;5.38;4.57;;;6.60;74.80;;;;;;5017948;28;20042;-61
2022/12/07 11:20:16;;;;;;;6.82;4.88;;;6.70;74.70;;;;;;5018219;28;20525;-62
2022/12/07 11:23:15;;;;;;;7.00;4.65;;;6.70;75.10;;;;;;4959357;28;20115;-61
2022/12/07 11:26:05;;;;;;;7.35;4.80;;;6.70;74.70;;;;;;5016585;28;20034;-61
2022/12/07 11:28:43;;;;;;;6.78;5.22;;;6.70;74.00;;;;;;5016116;28;20041;-60
2022/12/07 11:31:14;;;;;;;9.10;5.10;;;6.80;73.80;;;;;;5017014;28;20033;-61
2022/12/07 11:33:53;;;;;;;6.10;4.70;;;6.80;75.10;;;;;;5014938;28;20103;-62
2022/12/07 11:36:38;;;;;;;5.82;4.63;;;6.80;75.40;;;;;;5015903;28;20033;-62
2022/12/07 11:39:29;;;;;;;6.28;4.78;;;6.80;74.70;;;;;;5015935;28;20034;-61
2022/12/07 11:42:02;;;;;;;6.80;5.30;;;6.90;75.10;;;;;;5002257;28;20030;-59
2022/12/07 11:44:44;;;;;;;5.88;4.53;;;6.90;75.30;;;;;;5014623;28;20034;-61
2022/12/07 11:47:28;;;;;;;7.03;4.65;;;7.00;73.90;;;;;;5016304;28;20033;-60
2022/12/07 11:50:26;;;;;;;6.63;4.37;;;7.00;73.50;;;;;;5016455;28;20057;-60
2022/12/07 11:52:57;;;;;;;4.97;4.20;;;7.00;72.80;;;;;;4967758;28;20036;-60
2022/12/07 11:55:28;;;;;;;6.80;4.63;;;7.10;73.50;;;;;;5014685;28;20033;-61
2022/12/07 11:58:22;;;;;;;5.63;4.53;;;7.10;73.30;;;;;;5016048;28;20222;-61
2022/12/07 12:00:54;;;;;;;5.85;4.57;;;7.10;73.00;;;;;;5013858;28;20111;-62
2022/12/07 12:03:31;;;;;;;9.45;5.10;;;7.10;73.90;;;;;;5013087;28;20217;-59
2022/12/07 12:05:57;;;;;;;6.75;5.03;;;7.10;72.90;;;;;;5014681;28;20523;-61
2022/12/07 12:09:09;;;;;;;7.35;5.32;;;7.20;73.50;;;;;;5015312;28;20042;-62
2022/12/07 12:11:53;;;;;;;6.35;4.63;;;7.20;73.50;;;;;;4993270;28;20040;-62
2022/12/07 12:14:43;;;;;;;11.60;4.82;;;7.20;74.20;;;;;;5013593;28;20069;-61
2022/12/07 12:17:18;;;;;;;6.45;4.97;;;7.20;72.70;;;;;;5015043;28;20065;-61
2022/12/07 12:20:28;;;;;;;6.78;4.78;;;7.30;73.30;;;;;;5013621;28;20117;-61
2022/12/07 12:23:15;;;;;;;7.22;4.97;;;7.20;72.10;;;;;;5014940;28;20588;-62
2022/12/07 12:25:45;;;;;;;6.80;5.22;;;7.20;72.80;;;;;;5015684;28;20095;-61
2022/12/07 12:28:40;;;;;;;5.75;5.10;;;7.30;74.00;;;;;;5015683;28;20410;-61
2022/12/07 12:31:05;;;;;;;8.32;5.20;;;7.30;72.30;;;;;;5015130;28;20505;-60
2022/12/07 12:33:32;;;;;;;7.18;4.75;;;7.20;72.80;;;;;;5013876;28;20036;-62
2022/12/07 12:36:30;;;;;;;5.20;4.50;;;7.30;73.00;;;;;;5014852;28;20095;-62
2022/12/07 12:38:58;;;;;;;5.15;4.35;;;7.20;71.50;;;;;;4997451;28;20057;-59
2022/12/07 12:42:05;;;;;;;7.53;4.90;;;7.20;72.30;;;;;;5015180;28;20371;-60
2022/12/07 12:44:31;;;;;;;7.00;4.53;;;7.20;72.50;;;;;;5013934;28;20088;-61
2022/12/07 12:47:02;;;;;;;6.90;4.93;;;7.20;73.20;;;;;;5013981;28;20038;-62
2022/12/07 12:49:34;;;;;;;5.60;5.00;;;7.20;73.20;;;;;;5016115;28;20065;-60
2022/12/07 12:52:34;;;;;;;6.28;5.03;;;7.20;73.40;;;;;;5013982;28;20529;-59
2022/12/07 12:55:02;;;;;;;5.60;4.68;;;7.30;73.00;;;;;;5014723;28;20493;-61
2022/12/07 12:57:31;;;;;;;5.70;4.43;;;7.30;73.40;;;;;;5015373;28;20049;-61
2022/12/07 13:00:03;;;;;;;6.35;4.85;;;7.30;73.00;;;;;;5014661;28;20034;-61
2022/12/07 13:02:37;;;;;;;6.57;4.88;;;7.40;72.80;;;;;;5014172;28;20500;-61
2022/12/07 13:05:15;;;;;;;5.45;4.38;;;7.40;73.00;;;;;;5014235;28;20388;-60
2022/12/07 13:07:50;;;;;;;11.40;5.03;;;7.40;73.20;;;;;;5015315;28;20080;-61
2022/12/07 13:10:31;;;;;;;5.65;4.47;;;7.40;73.00;;;;;;5018424;28;20037;-60
2022/12/07 13:12:59;;;;;;;6.55;4.72;;;7.40;73.00;;;;;;5013368;28;20087;-62
2022/12/07 13:15:41;;;;;;;5.50;4.68;;;7.40;73.30;;;;;;5016434;28;20124;-61